createdAt,value
2018-05-04T00:00:57.395Z,0
2018-05-04T00:02:05.457Z,0
2018-05-04T00:03:13.517Z,0
2018-05-04T00:04:21.586Z,0
2018-05-04T00:05:29.650Z,0
2018-05-04T00:06:37.726Z,0
2018-05-04T00:07:45.770Z,0
2018-05-04T00:08:53.827Z,0
2018-05-04T00:10:01.893Z,0
2018-05-04T00:11:09.951Z,0
2018-05-04T00:12:18.031Z,0
2018-05-04T00:13:26.074Z,0
2018-05-04T00:14:34.122Z,0
2018-05-04T00:15:42.182Z,0
2018-05-04T00:16:50.264Z,0
2018-05-04T00:17:58.325Z,0
2018-05-04T00:19:06.401Z,0
2018-05-04T00:20:14.440Z,0
2018-05-04T00:21:22.477Z,0
2018-05-04T00:22:30.562Z,0
2018-05-04T00:23:38.619Z,0
2018-05-04T00:24:46.691Z,0
2018-05-04T00:25:54.740Z,0
2018-05-04T00:27:02.784Z,0
2018-05-04T00:28:10.893Z,0
2018-05-04T00:29:18.946Z,0
2018-05-04T00:30:27.003Z,0
2018-05-04T00:31:35.065Z,0
2018-05-04T00:32:43.124Z,0
2018-05-04T00:33:51.182Z,0
2018-05-04T00:34:59.256Z,0
2018-05-04T00:36:07.296Z,0
2018-05-04T00:37:15.422Z,0
2018-05-04T00:38:23.422Z,0
2018-05-04T00:39:31.480Z,0
2018-05-04T00:40:39.542Z,0
2018-05-04T00:41:47.614Z,0
2018-05-04T00:42:55.668Z,0
2018-05-04T00:44:03.729Z,0
2018-05-04T00:45:11.801Z,0
2018-05-04T00:46:19.864Z,0
2018-05-04T00:47:27.906Z,0
2018-05-04T00:48:35.979Z,0
2018-05-04T00:49:44.046Z,0
2018-05-04T00:50:52.085Z,0
2018-05-04T00:52:00.157Z,0
2018-05-04T00:53:08.222Z,0
2018-05-04T00:54:16.288Z,0
2018-05-04T00:55:24.353Z,0
2018-05-04T00:56:32.372Z,0
2018-05-04T00:57:40.464Z,0
2018-05-04T00:58:48.524Z,0
2018-05-04T00:59:56.604Z,0
2018-05-04T01:01:04.651Z,0
2018-05-04T01:02:12.680Z,0
2018-05-04T01:03:20.769Z,0
2018-05-04T01:04:28.825Z,0
2018-05-04T01:05:36.895Z,0
2018-05-04T01:06:44.963Z,0
2018-05-04T01:07:53.013Z,0
2018-05-04T01:09:01.086Z,0
2018-05-04T01:10:09.148Z,0
2018-05-04T01:11:17.206Z,0
2018-05-04T01:12:25.258Z,0
2018-05-04T01:13:33.316Z,0
2018-05-04T01:14:41.394Z,0
2018-05-04T01:15:49.450Z,0
2018-05-04T01:16:57.507Z,0
2018-05-04T01:18:05.579Z,0
2018-05-04T01:19:13.631Z,0
2018-05-04T01:20:21.703Z,0
2018-05-04T01:21:29.758Z,0
2018-05-04T01:22:37.833Z,0
2018-05-04T01:23:45.888Z,0
2018-05-04T01:24:53.937Z,0
2018-05-04T01:26:02.048Z,0
2018-05-04T01:27:10.068Z,0
2018-05-04T01:28:18.127Z,0
2018-05-04T01:29:26.200Z,0
2018-05-04T01:30:34.242Z,0
2018-05-04T01:31:42.283Z,0
2018-05-04T01:32:50.370Z,0
2018-05-04T01:33:58.424Z,0
2018-05-04T01:35:06.486Z,0
2018-05-04T01:36:14.605Z,0
2018-05-04T01:37:22.575Z,0
2018-05-04T01:38:30.678Z,0
2018-05-04T01:39:38.738Z,0
2018-05-04T01:40:46.804Z,0
2018-05-04T01:41:54.853Z,0
2018-05-04T01:43:02.917Z,0
2018-05-04T01:44:10.982Z,0
2018-05-04T01:45:19.041Z,0
2018-05-04T01:46:27.103Z,0
2018-05-04T01:47:35.165Z,0
2018-05-04T01:48:43.230Z,0
2018-05-04T01:49:51.294Z,0
2018-05-04T01:50:59.353Z,0
2018-05-04T01:52:07.413Z,0
2018-05-04T01:53:15.477Z,0
2018-05-04T01:54:23.527Z,0
2018-05-04T01:55:31.597Z,0
2018-05-04T01:56:39.672Z,0
2018-05-04T01:57:47.727Z,0
2018-05-04T01:58:55.782Z,0
2018-05-04T02:00:03.851Z,0
2018-05-04T02:01:11.915Z,0
2018-05-04T02:02:19.971Z,0
2018-05-04T02:03:28.032Z,0
2018-05-04T02:04:36.088Z,0
2018-05-04T02:05:44.154Z,0
2018-05-04T02:06:52.196Z,0
2018-05-04T02:08:00.277Z,0
2018-05-04T02:09:08.342Z,0
2018-05-04T02:10:16.394Z,0
2018-05-04T02:11:24.456Z,0
2018-05-04T02:12:32.492Z,0
2018-05-04T02:13:40.597Z,0
2018-05-04T02:14:48.655Z,0
2018-05-04T02:15:56.713Z,0
2018-05-04T02:17:04.772Z,0
2018-05-04T02:18:12.822Z,0
2018-05-04T02:19:20.889Z,0
2018-05-04T02:20:28.951Z,0
2018-05-04T02:21:37.016Z,0
2018-05-04T02:22:45.088Z,0
2018-05-04T02:23:53.142Z,0
2018-05-04T02:25:01.204Z,0
2018-05-04T02:26:09.268Z,0
2018-05-04T02:27:17.330Z,0
2018-05-04T02:28:25.399Z,0
2018-05-04T02:29:33.459Z,0
2018-05-04T02:30:41.513Z,0
2018-05-04T02:31:49.580Z,0
2018-05-04T02:32:57.631Z,0
2018-05-04T02:34:05.709Z,0
2018-05-04T02:35:13.770Z,0
2018-05-04T02:36:21.820Z,0
2018-05-04T02:37:29.886Z,0
2018-05-04T02:38:37.964Z,0
2018-05-04T02:39:45.994Z,0
2018-05-04T02:40:54.071Z,0
2018-05-04T02:42:16.653Z,0
2018-05-04T02:43:10.192Z,0
2018-05-04T02:44:18.259Z,0
2018-05-04T02:45:26.315Z,0
2018-05-04T02:46:34.390Z,0
2018-05-04T02:47:42.423Z,0
2018-05-04T02:48:50.502Z,0
2018-05-04T02:49:58.573Z,0
2018-05-04T02:51:06.631Z,0
2018-05-04T02:52:14.697Z,0
2018-05-04T02:53:22.728Z,0
2018-05-04T02:54:30.824Z,0
2018-05-04T02:55:38.891Z,0
2018-05-04T02:56:46.944Z,0
2018-05-04T02:57:55.011Z,0
2018-05-04T02:59:03.057Z,0
2018-05-04T03:00:11.115Z,0
2018-05-04T03:01:19.194Z,0
2018-05-04T03:02:27.243Z,0
2018-05-04T03:03:35.314Z,0
2018-05-04T03:04:43.366Z,0
2018-05-04T03:05:51.443Z,0
2018-05-04T03:06:59.493Z,0
2018-05-04T03:08:07.564Z,0
2018-05-04T03:09:15.618Z,0
2018-05-04T03:10:23.710Z,0
2018-05-04T03:11:31.743Z,0
2018-05-04T03:12:39.813Z,0
2018-05-04T03:13:47.857Z,0
2018-05-04T03:14:55.931Z,0
2018-05-04T03:16:03.993Z,0
2018-05-04T03:17:12.032Z,0
2018-05-04T03:18:20.110Z,0
2018-05-04T03:19:28.178Z,0
2018-05-04T03:20:36.236Z,0
2018-05-04T03:21:44.305Z,0
2018-05-04T03:22:52.326Z,0
2018-05-04T03:24:00.436Z,0
2018-05-04T03:25:08.512Z,0
2018-05-04T03:26:16.542Z,0
2018-05-04T03:27:24.602Z,0
2018-05-04T03:28:32.650Z,0
2018-05-04T03:29:40.728Z,0
2018-05-04T03:30:48.789Z,0
2018-05-04T03:31:56.851Z,0
2018-05-04T03:33:04.910Z,0
2018-05-04T03:34:12.969Z,0
2018-05-04T03:35:21.069Z,0
2018-05-04T03:36:29.104Z,0
2018-05-04T03:37:37.163Z,4
2018-05-04T03:38:45.223Z,0
2018-05-04T03:39:53.285Z,4
2018-05-04T03:41:01.351Z,4
2018-05-04T03:42:09.387Z,4
2018-05-04T03:43:17.465Z,4
2018-05-04T03:44:25.527Z,8
2018-05-04T03:45:33.585Z,8
2018-05-04T03:46:41.663Z,12
2018-05-04T03:47:49.731Z,16
2018-05-04T03:48:57.784Z,16
2018-05-04T03:50:05.833Z,20
2018-05-04T03:51:13.974Z,28
2018-05-04T03:52:21.962Z,32
2018-05-04T03:53:30.026Z,40
2018-05-04T03:54:38.093Z,52
2018-05-04T03:55:46.147Z,64
2018-05-04T03:56:54.222Z,76
2018-05-04T03:58:02.244Z,88
2018-05-04T03:59:10.753Z,100
2018-05-04T04:00:18.664Z,124
2018-05-04T04:01:26.456Z,144
2018-05-04T04:02:34.630Z,172
2018-05-04T04:03:42.552Z,200
2018-05-04T04:04:50.696Z,224
2018-05-04T04:05:58.705Z,244
2018-05-04T04:07:06.757Z,272
2018-05-04T04:08:14.832Z,296
2018-05-04T04:09:22.869Z,328
2018-05-04T04:10:30.955Z,352
2018-05-04T04:11:39.353Z,324
2018-05-04T04:12:47.085Z,332
2018-05-04T04:13:55.124Z,336
2018-05-04T04:15:03.207Z,308
2018-05-04T04:16:11.265Z,304
2018-05-04T04:17:19.328Z,320
2018-05-04T04:18:27.386Z,308
2018-05-04T04:19:35.432Z,292
2018-05-04T04:20:45.074Z,316
2018-05-04T04:21:51.553Z,412
2018-05-04T04:22:59.631Z,408
2018-05-04T04:24:07.681Z,468
2018-05-04T04:25:15.743Z,480
2018-05-04T04:26:23.803Z,444
2018-05-04T04:27:31.869Z,436
2018-05-04T04:28:39.930Z,492
2018-05-04T04:29:48.004Z,616
2018-05-04T04:30:56.057Z,692
2018-05-04T04:32:04.109Z,728
2018-05-04T04:33:12.171Z,876
2018-05-04T04:34:20.233Z,900
2018-05-04T04:35:28.554Z,880
2018-05-04T04:36:36.360Z,948
2018-05-04T04:37:45.074Z,1064
2018-05-04T04:38:52.544Z,1152
2018-05-04T04:40:00.564Z,1296
2018-05-04T04:41:08.618Z,1524
2018-05-04T04:42:16.686Z,1584
2018-05-04T04:43:24.739Z,1880
2018-05-04T04:44:32.783Z,2168
2018-05-04T04:45:40.885Z,2492
2018-05-04T04:46:48.921Z,2620
2018-05-04T04:47:56.982Z,2608
2018-05-04T04:49:05.048Z,2704
2018-05-04T04:50:13.101Z,2756
2018-05-04T04:51:21.316Z,2780
2018-05-04T04:52:29.237Z,2840
2018-05-04T04:53:37.280Z,2976
2018-05-04T04:54:45.356Z,2980
2018-05-04T04:55:53.432Z,3020
2018-05-04T04:57:01.489Z,3308
2018-05-04T04:58:09.544Z,3784
2018-05-04T04:59:17.598Z,4016
2018-05-04T05:00:25.667Z,3960
2018-05-04T05:01:33.730Z,3752
2018-05-04T05:02:41.791Z,3556
2018-05-04T05:03:49.853Z,3844
2018-05-04T05:04:57.925Z,3872
2018-05-04T05:06:05.979Z,3672
2018-05-04T05:07:14.030Z,3544
2018-05-04T05:08:22.083Z,3448
2018-05-04T05:09:30.165Z,3348
2018-05-04T05:10:38.218Z,3232
2018-05-04T05:11:46.284Z,2924
2018-05-04T05:12:54.680Z,2900
2018-05-04T05:14:02.385Z,2856
2018-05-04T05:15:10.471Z,3020
2018-05-04T05:16:18.801Z,3092
2018-05-04T05:17:26.606Z,3408
2018-05-04T05:18:34.704Z,3660
2018-05-04T05:19:42.699Z,5220
2018-05-04T05:20:50.782Z,6524
2018-05-04T05:21:58.847Z,6528
2018-05-04T05:23:06.915Z,6596
2018-05-04T05:24:14.974Z,7788
2018-05-04T05:25:23.025Z,7108
2018-05-04T05:26:31.102Z,6972
2018-05-04T05:27:39.163Z,7184
2018-05-04T05:28:47.218Z,7032
2018-05-04T05:29:55.279Z,7144
2018-05-04T05:31:03.357Z,7272
2018-05-04T05:32:11.419Z,7528
2018-05-04T05:33:19.479Z,7852
2018-05-04T05:34:27.553Z,7836
2018-05-04T05:35:35.707Z,7808
2018-05-04T05:36:43.688Z,7772
2018-05-04T05:37:51.743Z,7844
2018-05-04T05:38:59.797Z,7888
2018-05-04T05:40:07.849Z,7976
2018-05-04T05:41:15.916Z,7984
2018-05-04T05:42:23.988Z,8140
2018-05-04T05:43:32.037Z,8252
2018-05-04T05:44:40.098Z,8364
2018-05-04T05:45:48.175Z,8288
2018-05-04T05:46:56.236Z,8084
2018-05-04T05:48:04.304Z,8244
2018-05-04T05:49:12.333Z,8416
2018-05-04T05:50:20.424Z,8424
2018-05-04T05:51:28.510Z,8624
2018-05-04T05:52:36.548Z,8528
2018-05-04T05:53:44.620Z,8372
2018-05-04T05:54:52.659Z,8348
2018-05-04T05:56:00.747Z,8432
2018-05-04T05:57:08.827Z,8544
2018-05-04T05:58:16.871Z,8724
2018-05-04T05:59:24.946Z,8852
2018-05-04T06:00:33.005Z,8808
2018-05-04T06:01:41.066Z,8988
2018-05-04T06:02:49.123Z,9104
2018-05-04T06:03:57.281Z,9476
2018-05-04T06:05:05.235Z,9252
2018-05-04T06:06:13.312Z,8964
2018-05-04T06:07:21.388Z,9328
2018-05-04T06:08:29.451Z,9436
2018-05-04T06:09:37.509Z,8968
2018-05-04T06:10:45.579Z,9276
2018-05-04T06:11:53.647Z,9616
2018-05-04T06:13:01.693Z,9820
2018-05-04T06:14:09.766Z,10000
2018-05-04T06:15:17.827Z,9920
2018-05-04T06:16:25.883Z,9784
2018-05-04T06:17:33.958Z,10156
2018-05-04T06:18:42.004Z,9928
2018-05-04T06:19:50.078Z,9820
2018-05-04T06:20:58.150Z,9952
2018-05-04T06:22:06.220Z,9984
2018-05-04T06:23:14.267Z,9812
2018-05-04T06:24:22.314Z,9676
2018-05-04T06:25:30.410Z,9556
2018-05-04T06:26:38.481Z,9560
2018-05-04T06:27:46.536Z,9464
2018-05-04T06:28:54.600Z,9384
2018-05-04T06:30:02.632Z,9320
2018-05-04T06:31:10.733Z,9692
2018-05-04T06:32:18.791Z,9172
2018-05-04T06:33:26.850Z,9336
2018-05-04T06:34:34.922Z,9636
2018-05-04T06:35:42.978Z,10076
2018-05-04T06:36:51.054Z,10120
2018-05-04T06:37:59.107Z,9988
2018-05-04T06:39:07.167Z,10860
2018-05-04T06:40:15.251Z,9988
2018-05-04T06:41:23.306Z,10212
2018-05-04T06:42:31.360Z,10232
2018-05-04T06:43:39.427Z,10604
2018-05-04T06:44:47.499Z,10620
2018-05-04T06:45:55.554Z,10372
2018-05-04T06:47:03.629Z,10488
2018-05-04T06:48:11.670Z,10008
2018-05-04T06:49:19.765Z,11052
2018-05-04T06:50:27.835Z,11772
2018-05-04T06:51:35.902Z,11344
2018-05-04T06:52:43.949Z,11308
2018-05-04T06:53:51.992Z,11284
2018-05-04T06:55:00.081Z,11360
2018-05-04T06:56:08.159Z,11412
2018-05-04T06:57:16.191Z,11404
2018-05-04T06:58:24.267Z,11428
2018-05-04T06:59:32.310Z,11860
2018-05-04T07:00:40.494Z,12612
2018-05-04T07:01:48.462Z,13604
2018-05-04T07:02:56.535Z,14144
2018-05-04T07:04:04.625Z,14752
2018-05-04T07:05:12.636Z,15288
2018-05-04T07:06:20.715Z,16168
2018-05-04T07:07:28.787Z,16060
2018-05-04T07:08:36.843Z,17204
2018-05-04T07:09:44.908Z,20128
2018-05-04T07:10:52.976Z,21824
2018-05-04T07:12:01.069Z,20384
2018-05-04T07:13:09.115Z,17564
2018-05-04T07:14:17.174Z,17088
2018-05-04T07:15:25.227Z,17568
2018-05-04T07:16:33.303Z,17216
2018-05-04T07:17:41.372Z,17280
2018-05-04T07:18:49.447Z,18496
2018-05-04T07:19:57.508Z,17376
2018-05-04T07:21:05.569Z,18176
2018-05-04T07:22:13.640Z,20544
2018-05-04T07:23:21.699Z,18944
2018-05-04T07:24:29.768Z,19456
2018-05-04T07:25:37.838Z,15716
2018-05-04T07:26:45.906Z,22304
2018-05-04T07:27:53.967Z,18432
2018-05-04T07:29:02.030Z,17376
2018-05-04T07:30:10.096Z,19584
2018-05-04T07:31:18.164Z,23520
2018-05-04T07:32:26.258Z,28864
2018-05-04T07:33:34.300Z,30880
2018-05-04T07:34:42.341Z,32192
2018-05-04T07:35:50.430Z,24576
2018-05-04T07:36:58.545Z,17296
2018-05-04T07:38:06.569Z,26624
2018-05-04T07:39:14.629Z,29984
2018-05-04T07:40:22.665Z,20928
2018-05-04T07:41:30.768Z,16848
2018-05-04T07:42:38.832Z,19264
2018-05-04T07:43:46.902Z,26016
2018-05-04T07:44:54.976Z,20256
2018-05-04T07:46:03.027Z,19520
2018-05-04T07:47:11.114Z,22464
2018-05-04T07:48:19.175Z,42176
2018-05-04T07:49:27.244Z,23136
2018-05-04T07:50:35.306Z,27232
2018-05-04T07:51:43.378Z,22816
2018-05-04T07:52:51.437Z,20096
2018-05-04T07:53:59.503Z,19840
2018-05-04T07:55:07.641Z,13460
2018-05-04T07:56:15.657Z,14328
2018-05-04T07:57:23.731Z,13496
2018-05-04T07:58:31.770Z,13356
2018-05-04T07:59:39.846Z,14312
2018-05-04T08:00:47.926Z,10460
2018-05-04T08:01:56.000Z,10256
2018-05-04T08:03:04.056Z,9924
2018-05-04T08:04:12.102Z,8688
2018-05-04T08:05:20.192Z,8204
2018-05-04T08:06:28.261Z,8676
2018-05-04T08:07:36.325Z,9068
2018-05-04T08:08:44.405Z,10796
2018-05-04T08:09:52.438Z,11204
2018-05-04T08:11:00.526Z,12416
2018-05-04T08:12:08.593Z,11868
2018-05-04T08:13:16.665Z,11144
2018-05-04T08:14:24.727Z,11804
2018-05-04T08:15:32.774Z,12524
2018-05-04T08:16:40.879Z,11600
2018-05-04T08:17:48.940Z,11720
2018-05-04T08:18:57.007Z,12072
2018-05-04T08:20:05.107Z,10988
2018-05-04T08:21:13.132Z,10956
2018-05-04T08:22:21.196Z,8536
2018-05-04T08:23:29.271Z,7996
2018-05-04T08:24:37.338Z,8144
2018-05-04T08:25:45.413Z,9012
2018-05-04T08:26:53.483Z,7160
2018-05-04T08:28:01.548Z,7496
2018-05-04T08:29:09.616Z,7828
2018-05-04T08:30:17.679Z,8128
2018-05-04T08:31:25.765Z,8212
2018-05-04T08:32:33.809Z,8160
2018-05-04T08:33:41.944Z,8624
2018-05-04T08:34:49.940Z,11096
2018-05-04T08:35:58.006Z,13096
2018-05-04T08:37:06.085Z,12760
2018-05-04T08:38:14.132Z,10180
2018-05-04T08:39:22.174Z,11952
2018-05-04T08:40:30.279Z,18048
2018-05-04T08:41:38.333Z,17120
2018-05-04T08:42:46.406Z,19456
2018-05-04T08:43:54.478Z,17568
2018-05-04T08:45:02.516Z,21504
2018-05-04T08:46:10.603Z,21568
2018-05-04T08:47:18.661Z,12568
2018-05-04T08:48:26.744Z,17728
2018-05-04T08:49:34.804Z,64128
2018-05-04T08:50:42.853Z,72320
2018-05-04T08:51:50.946Z,54464
2018-05-04T08:52:59.083Z,63712
2018-05-04T08:54:07.069Z,17572
2018-05-04T08:55:15.151Z,19904
2018-05-04T08:56:23.208Z,72256
2018-05-04T08:57:31.276Z,69504
2018-05-04T08:58:39.345Z,75296
2018-05-04T08:59:47.417Z,25888
2018-05-04T09:00:55.486Z,64800
2018-05-04T09:02:03.555Z,18624
2018-05-04T09:03:11.652Z,14004
2018-05-04T09:04:19.692Z,14052
2018-05-04T09:05:27.882Z,20064
2018-05-04T09:06:35.829Z,20032
2018-05-04T09:07:43.907Z,22144
2018-05-04T09:08:51.960Z,17344
2018-05-04T09:10:00.033Z,20576
2018-05-04T09:11:08.108Z,22368
2018-05-04T09:12:16.179Z,19776
2018-05-04T09:13:24.259Z,20384
2018-05-04T09:14:32.299Z,19936
2018-05-04T09:15:40.414Z,24032
2018-05-04T09:16:48.455Z,20384
2018-05-04T09:17:56.530Z,16956
2018-05-04T09:19:04.605Z,18816
2018-05-04T09:20:12.649Z,15960
2018-05-04T09:21:20.747Z,14908
2018-05-04T09:22:28.881Z,19168
2018-05-04T09:23:36.886Z,24288
2018-05-04T09:24:44.943Z,15116
2018-05-04T09:25:53.021Z,20064
2018-05-04T09:27:01.078Z,20864
2018-05-04T09:28:09.160Z,21728
2018-05-04T09:29:17.232Z,24192
2018-05-04T09:30:25.302Z,23232
2018-05-04T09:31:33.384Z,21728
2018-05-04T09:32:41.444Z,19808
2018-05-04T09:33:49.500Z,17040
2018-05-04T09:34:57.587Z,14176
2018-05-04T09:36:05.644Z,14044
2018-05-04T09:37:13.787Z,12196
2018-05-04T09:38:21.787Z,10032
2018-05-04T09:39:29.853Z,7876
2018-05-04T09:40:37.929Z,7152
2018-05-04T09:41:45.989Z,7460
2018-05-04T09:42:54.079Z,9136
2018-05-04T09:44:02.111Z,13456
2018-05-04T09:45:10.192Z,19040
2018-05-04T09:46:18.260Z,19008
2018-05-04T09:47:26.334Z,19968
2018-05-04T09:48:34.405Z,18240
2018-05-04T09:49:42.449Z,17360
2018-05-04T09:50:50.543Z,17448
2018-05-04T09:51:58.611Z,23040
2018-05-04T09:53:06.681Z,18304
2018-05-04T09:54:14.776Z,17920
2018-05-04T09:55:22.796Z,18752
2018-05-04T09:56:30.882Z,18176
2018-05-04T09:57:38.957Z,17536
2018-05-04T09:58:47.023Z,22656
2018-05-04T09:59:55.090Z,18912
2018-05-04T10:01:03.168Z,23680
2018-05-04T10:02:11.234Z,20416
2018-05-04T10:03:19.309Z,20928
2018-05-04T10:04:27.366Z,20672
2018-05-04T10:05:35.432Z,20352
2018-05-04T10:06:43.539Z,19616
2018-05-04T10:07:51.570Z,18528
2018-05-04T10:08:59.647Z,15920
2018-05-04T10:10:07.730Z,16636
2018-05-04T10:11:15.795Z,19424
2018-05-04T10:12:23.861Z,20672
2018-05-04T10:13:31.916Z,20448
2018-05-04T10:14:40.009Z,14576
2018-05-04T10:15:48.072Z,14424
2018-05-04T10:16:56.141Z,14872
2018-05-04T10:18:04.202Z,18400
2018-05-04T10:19:12.250Z,18464
2018-05-04T10:20:20.333Z,19104
2018-05-04T10:21:28.412Z,21184
2018-05-04T10:22:36.485Z,17696
2018-05-04T10:23:44.546Z,14832
2018-05-04T10:24:52.599Z,14216
2018-05-04T10:26:00.690Z,13872
2018-05-04T10:27:08.761Z,13160
2018-05-04T10:28:16.829Z,14268
2018-05-04T10:29:24.888Z,13656
2018-05-04T10:30:32.957Z,16332
2018-05-04T10:31:41.038Z,16228
2018-05-04T10:32:49.092Z,14240
2018-05-04T10:33:57.185Z,13056
2018-05-04T10:35:05.246Z,14316
2018-05-04T10:36:13.325Z,15488
2018-05-04T10:37:21.371Z,13684
2018-05-04T10:38:29.570Z,11336
2018-05-04T10:39:37.488Z,13864
2018-05-04T10:40:45.588Z,16048
2018-05-04T10:41:53.640Z,20160
2018-05-04T10:43:01.719Z,18912
2018-05-04T10:44:09.781Z,16708
2018-05-04T10:45:17.899Z,14584
2018-05-04T10:46:25.938Z,15224
2018-05-04T10:47:34.009Z,14388
2018-05-04T10:48:42.052Z,13180
2018-05-04T10:49:50.124Z,13848
2018-05-04T10:50:58.208Z,14192
2018-05-04T10:52:06.263Z,18560
2018-05-04T10:53:14.335Z,19168
2018-05-04T10:54:22.387Z,16024
2018-05-04T10:55:30.475Z,16672
2018-05-04T10:56:38.551Z,18400
2018-05-04T10:57:46.623Z,18496
2018-05-04T10:58:54.683Z,15264
2018-05-04T11:00:02.729Z,14064
2018-05-04T11:01:10.822Z,12880
2018-05-04T11:02:18.887Z,15864
2018-05-04T11:03:26.963Z,17760
2018-05-04T11:04:35.030Z,14324
2018-05-04T11:05:43.097Z,16020
2018-05-04T11:06:51.177Z,18272
2018-05-04T11:07:59.246Z,20768
2018-05-04T11:09:07.313Z,19680
2018-05-04T11:10:15.385Z,15244
2018-05-04T11:11:23.453Z,14136
2018-05-04T11:12:31.514Z,15824
2018-05-04T11:13:39.593Z,19104
2018-05-04T11:14:47.661Z,17536
2018-05-04T11:15:55.724Z,13856
2018-05-04T11:17:03.779Z,15008
2018-05-04T11:18:11.859Z,12732
2018-05-04T11:19:20.075Z,13716
2018-05-04T11:20:27.997Z,13728
2018-05-04T11:21:36.071Z,16448
2018-05-04T11:22:44.139Z,17216
2018-05-04T11:23:52.174Z,14156
2018-05-04T11:25:00.292Z,13468
2018-05-04T11:26:08.346Z,13472
2018-05-04T11:27:16.415Z,11556
2018-05-04T11:28:24.482Z,9784
2018-05-04T11:29:32.533Z,8976
2018-05-04T11:30:40.621Z,8852
2018-05-04T11:31:48.706Z,8728
2018-05-04T11:32:56.759Z,10856
2018-05-04T11:34:04.834Z,11180
2018-05-04T11:35:12.885Z,12336
2018-05-04T11:36:20.980Z,11248
2018-05-04T11:37:29.039Z,11420
2018-05-04T11:38:37.115Z,15588
2018-05-04T11:39:45.175Z,16192
2018-05-04T11:40:53.241Z,10084
2018-05-04T11:42:01.302Z,10356
2018-05-04T11:43:09.375Z,11708
2018-05-04T11:44:17.447Z,12476
2018-05-04T11:45:25.510Z,9340
2018-05-04T11:46:33.581Z,11640
2018-05-04T11:47:41.653Z,10372
2018-05-04T11:48:49.727Z,11692
2018-05-04T11:49:57.800Z,10480
2018-05-04T11:51:05.866Z,13816
2018-05-04T11:52:13.931Z,17408
2018-05-04T11:53:21.990Z,16512
2018-05-04T11:54:30.072Z,14656
2018-05-04T11:55:38.134Z,14852
2018-05-04T11:56:46.206Z,12040
2018-05-04T11:57:54.280Z,11840
2018-05-04T11:59:02.319Z,15780
2018-05-04T12:00:10.418Z,17472
2018-05-04T12:01:18.489Z,18080
2018-05-04T12:02:26.625Z,16104
2018-05-04T12:03:34.625Z,13260
2018-05-04T12:04:42.661Z,16028
2018-05-04T12:05:50.762Z,18432
2018-05-04T12:06:58.833Z,17344
2018-05-04T12:08:06.908Z,17408
2018-05-04T12:09:14.976Z,17728
2018-05-04T12:10:23.027Z,17568
2018-05-04T12:11:31.105Z,19008
2018-05-04T12:12:39.180Z,17504
2018-05-04T12:13:47.240Z,14108
2018-05-04T12:14:55.322Z,13852
2018-05-04T12:16:03.389Z,14608
2018-05-04T12:17:11.449Z,12684
2018-05-04T12:18:19.512Z,13088
2018-05-04T12:19:27.585Z,13868
2018-05-04T12:20:35.672Z,14748
2018-05-04T12:21:43.721Z,15832
2018-05-04T12:22:51.816Z,16268
2018-05-04T12:23:59.863Z,15060
2018-05-04T12:25:07.932Z,16140
2018-05-04T12:26:16.004Z,14532
2018-05-04T12:27:24.076Z,17184
2018-05-04T12:28:32.116Z,17920
2018-05-04T12:29:40.211Z,16736
2018-05-04T12:30:48.289Z,17536
2018-05-04T12:31:56.342Z,17792
2018-05-04T12:33:04.434Z,16204
2018-05-04T12:34:12.494Z,16368
2018-05-04T12:35:20.562Z,14968
2018-05-04T12:36:28.630Z,15064
2018-05-04T12:37:36.703Z,14412
2018-05-04T12:38:44.771Z,12976
2018-05-04T12:39:52.816Z,12300
2018-05-04T12:41:00.897Z,10700
2018-05-04T12:42:08.997Z,9312
2018-05-04T12:43:17.051Z,10768
2018-05-04T12:44:25.116Z,11052
2018-05-04T12:45:33.184Z,14864
2018-05-04T12:46:41.248Z,15480
2018-05-04T12:47:49.319Z,14476
2018-05-04T12:48:57.397Z,15168
2018-05-04T12:50:05.456Z,16172
2018-05-04T12:51:13.526Z,15820
2018-05-04T12:52:21.601Z,16720
2018-05-04T12:53:29.718Z,17632
2018-05-04T12:54:37.730Z,17504
2018-05-04T12:55:45.808Z,15640
2018-05-04T12:56:53.866Z,17088
2018-05-04T12:58:01.926Z,16800
2018-05-04T12:59:10.012Z,16296
2018-05-04T13:00:18.082Z,16960
2018-05-04T13:01:26.143Z,15292
2018-05-04T13:02:34.214Z,14928
2018-05-04T13:03:42.266Z,14832
2018-05-04T13:04:50.362Z,14868
2018-05-04T13:05:58.427Z,16928
2018-05-04T13:07:06.505Z,14464
2018-05-04T13:08:14.606Z,14984
2018-05-04T13:09:22.601Z,15496
2018-05-04T13:10:30.715Z,15052
2018-05-04T13:11:38.778Z,14452
2018-05-04T13:12:46.856Z,14980
2018-05-04T13:13:54.921Z,12288
2018-05-04T13:15:02.974Z,12488
2018-05-04T13:16:11.065Z,13288
2018-05-04T13:17:19.123Z,10280
2018-05-04T13:18:27.185Z,11164
2018-05-04T13:19:35.254Z,10788
2018-05-04T13:20:43.323Z,11104
2018-05-04T13:21:51.393Z,10488
2018-05-04T13:22:59.463Z,10036
2018-05-04T13:24:07.525Z,9892
2018-05-04T13:25:15.614Z,8808
2018-05-04T13:26:23.698Z,9508
2018-05-04T13:27:31.749Z,11312
2018-05-04T13:28:40.986Z,7952
2018-05-04T13:29:47.867Z,8496
2018-05-04T13:30:55.997Z,11608
2018-05-04T13:32:04.020Z,13568
2018-05-04T13:33:12.076Z,12588
2018-05-04T13:34:20.179Z,14732
2018-05-04T13:35:28.234Z,12872
2018-05-04T13:36:36.298Z,13108
2018-05-04T13:37:44.350Z,14476
2018-05-04T13:38:52.445Z,13036
2018-05-04T13:40:00.499Z,13052
2018-05-04T13:41:08.571Z,13068
2018-05-04T13:42:16.644Z,12740
2018-05-04T13:43:24.704Z,12388
2018-05-04T13:44:32.812Z,11688
2018-05-04T13:45:40.860Z,11452
2018-05-04T13:46:48.938Z,11788
2018-05-04T13:47:56.983Z,13640
2018-05-04T13:49:05.056Z,12088
2018-05-04T13:50:13.129Z,11392
2018-05-04T13:51:21.275Z,12824
2018-05-04T13:52:29.263Z,11264
2018-05-04T13:53:37.336Z,11568
2018-05-04T13:54:45.406Z,13204
2018-05-04T13:55:53.468Z,13240
2018-05-04T13:57:01.546Z,12060
2018-05-04T13:58:09.605Z,12464
2018-05-04T13:59:17.664Z,13124
2018-05-04T14:00:25.745Z,12192
2018-05-04T14:01:33.806Z,10524
2018-05-04T14:02:41.907Z,10840
2018-05-04T14:03:49.969Z,11876
2018-05-04T14:04:58.018Z,9780
2018-05-04T14:06:06.088Z,10192
2018-05-04T14:07:14.163Z,12268
2018-05-04T14:08:22.204Z,11524
2018-05-04T14:09:30.295Z,9720
2018-05-04T14:10:38.362Z,12148
2018-05-04T14:11:46.427Z,12616
2018-05-04T14:12:54.488Z,11796
2018-05-04T14:14:02.531Z,13408
2018-05-04T14:15:10.627Z,12700
2018-05-04T14:16:18.711Z,12432
2018-05-04T14:17:26.777Z,11260
2018-05-04T14:18:34.844Z,9216
2018-05-04T14:19:42.890Z,12196
2018-05-04T14:20:50.988Z,12216
2018-05-04T14:21:59.048Z,11548
2018-05-04T14:23:07.104Z,11324
2018-05-04T14:24:15.183Z,10544
2018-05-04T14:25:23.253Z,7788
2018-05-04T14:26:31.345Z,8464
2018-05-04T14:27:39.387Z,8728
2018-05-04T14:28:47.485Z,9552
2018-05-04T14:29:55.527Z,10396
2018-05-04T14:31:03.603Z,9992
2018-05-04T14:32:11.676Z,8924
2018-05-04T14:33:19.732Z,10016
2018-05-04T14:34:27.829Z,9828
2018-05-04T14:35:35.901Z,9252
2018-05-04T14:36:43.940Z,9544
2018-05-04T14:37:51.982Z,10764
2018-05-04T14:39:00.083Z,10952
2018-05-04T14:40:08.158Z,10964
2018-05-04T14:41:16.220Z,11512
2018-05-04T14:42:24.281Z,11468
2018-05-04T14:43:32.350Z,11044
2018-05-04T14:44:40.437Z,9492
2018-05-04T14:45:48.497Z,10180
2018-05-04T14:46:56.563Z,11396
2018-05-04T14:48:04.629Z,10168
2018-05-04T14:49:12.704Z,8468
2018-05-04T14:50:20.775Z,10820
2018-05-04T14:51:28.921Z,11176
2018-05-04T14:52:36.901Z,10968
2018-05-04T14:53:44.978Z,10476
2018-05-04T14:54:53.034Z,8124
2018-05-04T14:56:01.121Z,7332
2018-05-04T14:57:09.179Z,8644
2018-05-04T14:58:17.245Z,8712
2018-05-04T14:59:25.315Z,9672
2018-05-04T15:00:33.380Z,9272
2018-05-04T15:01:41.463Z,9484
2018-05-04T15:02:49.515Z,9336
2018-05-04T15:03:57.672Z,9276
2018-05-04T15:05:05.660Z,9080
2018-05-04T15:06:13.725Z,9272
2018-05-04T15:07:21.791Z,9792
2018-05-04T15:08:29.852Z,10316
2018-05-04T15:09:37.935Z,8992
2018-05-04T15:10:45.988Z,8936
2018-05-04T15:11:54.113Z,8884
2018-05-04T15:13:02.119Z,9192
2018-05-04T15:14:10.200Z,9228
2018-05-04T15:15:18.278Z,8052
2018-05-04T15:16:26.333Z,6556